Time;durP1;ratioP1;P1;durP2;ratioP2;P2;SDS_P1;SDS_P2;PMS_P1;PMS_P2;Temp;Humidity;BMP_temperature;BMP_pressure;BME280_temperature;BME280_humidity;BME280_pressure;Samples;Min_cycle;Max_cycle;Signal;HPM_P1;HPM_P2
2022/12/19 00:01:08;;;;;;;36.95;21.13;;;0.70;99.90;;;;;;4979720;28;20088;-77
2022/12/19 00:03:35;;;;;;;35.67;19.88;;;0.80;99.90;;;;;;4967358;28;20126;-77
2022/12/19 00:06:03;;;;;;;33.45;18.15;;;0.50;99.90;;;;;;4965262;28;20070;-77
2022/12/19 00:08:29;;;;;;;34.28;20.10;;;0.60;99.90;;;;;;4990617;28;20108;-77
2022/12/19 00:10:57;;;;;;;38.38;20.27;;;1.30;99.90;;;;;;4988227;28;20437;-77
2022/12/19 00:13:23;;;;;;;34.72;19.38;;;0.80;99.90;;;;;;4991205;28;20101;-77
2022/12/19 00:15:49;;;;;;;37.92;19.75;;;0.70;99.90;;;;;;4990340;28;20054;-77
2022/12/19 00:18:14;;;;;;;37.60;20.30;;;0.90;99.90;;;;;;4991544;28;20046;-76
2022/12/19 00:20:40;;;;;;;32.60;19.60;;;0.70;99.90;;;;;;4991988;28;20062;-77
2022/12/19 00:23:06;;;;;;;35.25;19.40;;;0.70;99.90;;;;;;4990620;28;20130;-77
2022/12/19 00:25:32;;;;;;;36.00;19.35;;;0.90;99.90;;;;;;4984085;28;20057;-77
2022/12/19 00:27:57;;;;;;;33.15;19.40;;;1.00;99.90;;;;;;4978915;28;20093;-77
2022/12/19 00:30:23;;;;;;;33.38;19.02;;;0.70;99.90;;;;;;4987487;28;20057;-77
2022/12/19 00:32:48;;;;;;;36.35;19.52;;;0.80;99.90;;;;;;4990903;28;20516;-77
2022/12/19 00:35:14;;;;;;;34.78;19.30;;;0.70;99.90;;;;;;4990125;28;20050;-77
2022/12/19 00:37:40;;;;;;;35.33;19.70;;;0.90;99.90;;;;;;4986104;28;20149;-77
2022/12/19 00:40:06;;;;;;;32.53;18.98;;;0.80;99.90;;;;;;4986800;28;20050;-77
2022/12/19 00:42:32;;;;;;;34.78;18.73;;;0.90;99.90;;;;;;4988228;28;20061;-77
2022/12/19 00:44:57;;;;;;;35.97;20.27;;;0.90;99.90;;;;;;4987459;28;20042;-77
2022/12/19 00:47:26;;;;;;;35.55;20.75;;;0.80;99.90;;;;;;4971922;28;20050;-77
2022/12/19 00:49:51;;;;;;;34.47;20.02;;;1.00;99.90;;;;;;4989022;28;20042;-77
2022/12/19 00:52:17;;;;;;;33.58;19.20;;;0.90;99.90;;;;;;4990423;28;20100;-77
2022/12/19 00:54:43;;;;;;;35.30;18.70;;;0.90;99.90;;;;;;4989611;28;20070;-77
2022/12/19 00:57:08;;;;;;;36.25;19.65;;;0.30;99.90;;;;;;4987721;28;20409;-77
2022/12/19 00:59:34;;;;;;;33.00;19.67;;;1.00;99.90;;;;;;4988737;28;20042;-77
2022/12/19 01:01:59;;;;;;;34.08;19.23;;;1.10;99.90;;;;;;4988816;28;20042;-77
2022/12/19 01:04:25;;;;;;;33.97;19.55;;;1.10;99.90;;;;;;4976159;28;20047;-77
2022/12/19 01:06:51;;;;;;;37.33;19.83;;;1.00;99.90;;;;;;4972836;28;20054;-77
2022/12/19 01:09:17;;;;;;;36.05;19.85;;;1.00;99.90;;;;;;4989836;28;20054;-77
2022/12/19 01:14:28;;;;;;;33.95;19.88;;;1.00;99.90;;;;;;4989301;28;20548;-77
2022/12/19 01:16:53;;;;;;;32.72;18.73;;;1.20;99.90;;;;;;4988074;28;20668;-77
2022/12/19 01:19:19;;;;;;;33.80;18.85;;;1.00;99.90;;;;;;4989259;28;20054;-77
2022/12/19 01:21:45;;;;;;;33.70;19.33;;;1.20;99.90;;;;;;4991229;28;20142;-77
2022/12/19 01:24:11;;;;;;;35.40;18.67;;;1.20;99.90;;;;;;4972689;28;20042;-77
2022/12/19 01:26:37;;;;;;;34.05;18.60;;;1.30;99.90;;;;;;4989645;28;20141;-77
2022/12/19 01:29:03;;;;;;;37.33;20.58;;;1.10;99.90;;;;;;4973034;28;20411;-77
2022/12/19 01:31:29;;;;;;;33.90;19.60;;;1.10;99.90;;;;;;4987233;28;20042;-77
2022/12/19 01:33:59;;;;;;;36.33;19.75;;;1.20;99.90;;;;;;4971619;28;20058;-77
2022/12/19 01:36:24;;;;;;;38.20;21.00;;;1.20;99.90;;;;;;4988759;28;20086;-77
2022/12/19 01:38:50;;;;;;;41.03;20.92;;;1.10;99.90;;;;;;4990081;28;20070;-77
2022/12/19 01:41:15;;;;;;;37.35;20.20;;;1.30;99.90;;;;;;4983767;28;20061;-77
2022/12/19 01:44:03;;;;;;;36.30;20.67;;;1.20;99.90;;;;;;4989473;28;20474;-77
2022/12/19 01:46:48;;;;;;;32.88;19.55;;;1.50;99.90;;;;;;4968581;28;20137;-77
2022/12/19 01:49:35;;;;;;;39.13;19.90;;;1.30;99.90;;;;;;4988753;28;20042;-77
2022/12/19 01:52:06;;;;;;;37.70;20.10;;;1.50;99.90;;;;;;4988572;28;20042;-77
2022/12/19 01:54:35;;;;;;;35.25;19.70;;;1.30;99.90;;;;;;4989456;28;20043;-77
2022/12/19 01:57:03;;;;;;;33.65;18.80;;;1.30;99.90;;;;;;4979912;28;20058;-77
2022/12/19 01:59:31;;;;;;;34.40;20.02;;;1.40;99.90;;;;;;4982302;28;20073;-77
2022/12/19 02:02:07;;;;;;;35.05;19.02;;;1.50;99.90;;;;;;4987081;28;20050;-77
2022/12/19 02:04:33;;;;;;;36.85;19.67;;;1.20;99.90;;;;;;4988831;28;20049;-77
2022/12/19 02:07:02;;;;;;;37.15;20.05;;;1.50;99.90;;;;;;4989005;28;20476;-77
2022/12/19 02:09:27;;;;;;;36.65;19.65;;;1.40;99.90;;;;;;4989150;28;20501;-78
2022/12/19 02:11:53;;;;;;;37.33;20.15;;;1.20;99.90;;;;;;4988928;28;20042;-77
2022/12/19 02:14:19;;;;;;;37.65;20.27;;;1.30;99.90;;;;;;4989620;28;20054;-78
2022/12/19 02:17:01;;;;;;;37.40;19.80;;;1.30;99.90;;;;;;4971532;28;20038;-78
2022/12/19 02:19:38;;;;;;;37.63;19.30;;;1.50;99.90;;;;;;4989109;28;20184;-77
2022/12/19 02:22:21;;;;;;;39.83;21.35;;;1.30;99.90;;;;;;4990312;28;20046;-78
2022/12/19 02:25:06;;;;;;;38.38;20.42;;;1.30;99.90;;;;;;4988273;28;20046;-77
2022/12/19 02:27:44;;;;;;;37.53;20.10;;;1.30;99.90;;;;;;4948248;28;20054;-77
2022/12/19 02:30:11;;;;;;;38.60;20.83;;;1.50;99.90;;;;;;4987599;28;20464;-78
2022/12/19 02:32:56;;;;;;;38.15;20.98;;;1.50;99.90;;;;;;4971431;28;20046;-78
2022/12/19 02:35:30;;;;;;;41.10;20.70;;;1.40;99.90;;;;;;4987656;28;20053;-78
2022/12/19 02:38:21;;;;;;;37.90;20.67;;;1.30;99.90;;;;;;4988364;28;20129;-78
2022/12/19 02:40:57;;;;;;;42.42;21.25;;;1.40;99.90;;;;;;4973132;28;20497;-78
2022/12/19 02:43:26;;;;;;;37.63;20.70;;;1.90;99.90;;;;;;4989575;28;20058;-78
2022/12/19 02:45:53;;;;;;;40.17;21.45;;;1.50;99.90;;;;;;4986851;28;20082;-78
2022/12/19 02:48:19;;;;;;;38.85;21.23;;;1.40;99.90;;;;;;4968360;28;20046;-78
2022/12/19 02:50:46;;;;;;;42.47;21.52;;;1.40;99.90;;;;;;4984187;28;20096;-78
2022/12/19 02:53:14;;;;;;;45.20;23.40;;;1.30;99.90;;;;;;4986855;28;20096;-78
2022/12/19 02:56:03;;;;;;;42.42;21.67;;;1.30;99.90;;;;;;4987323;28;20042;-78
2022/12/19 02:58:32;;;;;;;46.92;23.45;;;1.40;99.90;;;;;;4986436;28;20042;-78
2022/12/19 03:01:20;;;;;;;43.53;22.20;;;1.40;99.90;;;;;;4988953;28;20626;-78
2022/12/19 03:03:58;;;;;;;44.60;21.42;;;1.40;99.90;;;;;;4987599;28;20050;-78
2022/12/19 03:06:39;;;;;;;47.60;22.83;;;1.50;99.90;;;;;;4985767;28;20046;-78
2022/12/19 03:09:19;;;;;;;48.00;22.77;;;1.40;99.90;;;;;;4987983;28;20045;-78
2022/12/19 03:11:49;;;;;;;48.53;23.85;;;1.50;99.90;;;;;;4987477;28;20046;-78
2022/12/19 03:14:18;;;;;;;50.95;24.08;;;1.90;99.90;;;;;;4987046;28;20550;-78
2022/12/19 03:16:44;;;;;;;46.47;24.40;;;1.50;99.90;;;;;;4986412;28;20084;-78
2022/12/19 03:19:13;;;;;;;48.72;24.33;;;1.70;99.90;;;;;;4971059;28;20619;-78
2022/12/19 03:21:42;;;;;;;43.78;23.20;;;1.50;99.90;;;;;;4970940;28;20864;-78
2022/12/19 03:24:10;;;;;;;51.22;25.20;;;1.60;99.90;;;;;;4986542;28;21051;-78
2022/12/19 03:26:57;;;;;;;50.05;24.50;;;1.70;99.90;;;;;;4986364;28;20066;-78
2022/12/19 03:30:21;;;;;;;51.92;24.23;;;1.70;99.90;;;;;;4969906;28;20065;-78
2022/12/19 03:32:48;;;;;;;50.17;22.92;;;1.70;99.90;;;;;;4954680;28;20134;-78
2022/12/19 03:35:20;;;;;;;52.35;24.52;;;1.70;99.90;;;;;;4986985;28;20133;-78
2022/12/19 03:37:49;;;;;;;50.92;25.15;;;1.80;99.90;;;;;;4987761;28;20118;-79
2022/12/19 03:40:17;;;;;;;51.90;24.48;;;1.90;99.90;;;;;;4987430;28;20101;-79
2022/12/19 03:45:43;;;;;;;58.88;26.83;;;1.90;99.90;;;;;;4986751;28;20138;-79
2022/12/19 03:48:21;;;;;;;58.40;26.52;;;1.90;99.90;;;;;;4980322;28;20090;-78
2022/12/19 03:51:04;;;;;;;58.65;26.88;;;1.90;99.90;;;;;;4980919;28;20489;-80
2022/12/19 03:53:32;;;;;;;56.95;27.15;;;1.90;99.90;;;;;;4986929;28;20070;-80
2022/12/19 03:56:30;;;;;;;64.40;27.75;;;1.90;99.90;;;;;;4987295;28;20049;-80
2022/12/19 03:59:11;;;;;;;60.50;25.75;;;2.10;99.90;;;;;;4982633;28;20041;-80
2022/12/19 04:01:37;;;;;;;60.50;28.70;;;2.00;99.90;;;;;;4986970;28;20050;-80
2022/12/19 04:04:05;;;;;;;63.00;27.75;;;2.10;99.90;;;;;;4986077;28;20053;-80
2022/12/19 04:06:32;;;;;;;62.42;28.20;;;2.00;99.90;;;;;;4986348;28;20057;-80
2022/12/19 04:08:59;;;;;;;66.15;28.58;;;2.10;99.90;;;;;;4987165;28;20574;-80
2022/12/19 04:11:28;;;;;;;65.50;29.42;;;2.10;99.90;;;;;;4989604;28;20457;-80
2022/12/19 04:13:59;;;;;;;59.45;28.45;;;2.20;99.90;;;;;;4990188;28;20046;-80
2022/12/19 04:16:33;;;;;;;61.58;28.35;;;2.10;99.90;;;;;;4985589;28;20051;-80
2022/12/19 04:19:09;;;;;;;61.35;29.77;;;2.10;99.90;;;;;;4970950;28;20043;-80
2022/12/19 04:21:42;;;;;;;68.80;29.77;;;2.10;99.90;;;;;;4989870;28;20062;-80
2022/12/19 04:24:19;;;;;;;62.13;27.98;;;2.10;99.90;;;;;;4990457;28;20074;-80
2022/12/19 04:26:47;;;;;;;62.80;30.17;;;2.20;99.90;;;;;;4989992;28;20120;-80
2022/12/19 04:29:14;;;;;;;65.18;28.52;;;2.10;99.90;;;;;;4986111;28;20050;-81
2022/12/19 04:31:40;;;;;;;62.83;29.88;;;2.40;99.90;;;;;;4988495;28;20046;-80
2022/12/19 04:34:05;;;;;;;66.35;30.58;;;2.10;99.90;;;;;;4971763;28;20057;-81
2022/12/19 04:36:31;;;;;;;65.43;30.23;;;2.20;99.90;;;;;;4990919;28;20428;-80
2022/12/19 04:38:57;;;;;;;63.55;30.33;;;2.20;99.90;;;;;;4972754;28;20118;-80
2022/12/19 04:41:22;;;;;;;66.95;29.15;;;2.20;99.90;;;;;;4987573;28;20046;-80
2022/12/19 04:43:48;;;;;;;62.88;29.27;;;2.30;99.90;;;;;;4990358;28;20050;-80
2022/12/19 04:46:14;;;;;;;65.40;30.05;;;2.20;99.90;;;;;;5002454;28;20046;-80
2022/12/19 04:48:39;;;;;;;60.13;29.08;;;2.40;99.90;;;;;;4988688;28;20513;-80
2022/12/19 04:51:05;;;;;;;65.78;29.60;;;2.40;99.90;;;;;;4989319;28;20505;-80
2022/12/19 04:53:31;;;;;;;60.08;27.95;;;2.30;99.90;;;;;;4988119;28;20042;-78
2022/12/19 04:56:05;;;;;;;61.53;29.40;;;2.40;99.90;;;;;;4976879;28;20069;-80
2022/12/19 04:58:31;;;;;;;62.40;29.10;;;2.30;99.90;;;;;;4987895;28;20046;-80
2022/12/19 05:01:05;;;;;;;60.88;27.70;;;2.50;99.90;;;;;;4987267;28;20138;-80
2022/12/19 05:03:31;;;;;;;64.13;27.60;;;2.50;99.90;;;;;;4989487;28;20073;-80
2022/12/19 05:06:12;;;;;;;60.97;27.70;;;2.40;99.90;;;;;;4988909;28;20046;-80
2022/12/19 05:08:40;;;;;;;57.08;26.73;;;2.50;99.90;;;;;;4989928;28;20050;-80
2022/12/19 05:11:09;;;;;;;59.42;27.95;;;2.50;99.90;;;;;;4987011;28;20158;-79
2022/12/19 05:13:34;;;;;;;62.00;28.35;;;2.70;99.90;;;;;;4990987;28;20050;-80
2022/12/19 05:16:09;;;;;;;61.33;28.95;;;2.50;99.90;;;;;;4988120;28;20108;-79
2022/12/19 05:18:35;;;;;;;58.05;28.27;;;2.60;99.90;;;;;;4970509;28;20043;-80
2022/12/19 05:21:02;;;;;;;64.15;28.45;;;2.60;99.90;;;;;;4964990;28;20078;-80
2022/12/19 05:23:28;;;;;;;60.65;26.90;;;2.70;99.90;;;;;;4970250;28;20039;-80
2022/12/19 05:25:57;;;;;;;60.90;28.30;;;2.60;99.90;;;;;;4988737;28;20097;-80
2022/12/19 05:28:22;;;;;;;59.67;27.08;;;2.60;99.90;;;;;;4988221;28;20050;-80
2022/12/19 05:30:48;;;;;;;62.55;27.92;;;2.50;99.90;;;;;;4989379;28;20618;-79
2022/12/19 05:33:14;;;;;;;60.33;27.85;;;2.70;99.90;;;;;;4987415;28;20571;-80
2022/12/19 05:35:39;;;;;;;55.60;28.63;;;2.80;99.90;;;;;;4988483;28;20141;-80
2022/12/19 05:38:05;;;;;;;56.05;27.45;;;2.80;99.90;;;;;;4989042;28;20038;-80
2022/12/19 05:40:32;;;;;;;59.90;28.35;;;2.80;99.90;;;;;;4987954;28;20223;-79
2022/12/19 05:42:58;;;;;;;58.95;27.35;;;2.80;99.90;;;;;;4989813;28;20148;-80
2022/12/19 05:45:23;;;;;;;54.25;26.90;;;2.90;99.90;;;;;;4986339;28;20138;-78
2022/12/19 05:47:49;;;;;;;55.50;26.42;;;2.80;99.90;;;;;;4972637;28;20042;-78
2022/12/19 05:50:16;;;;;;;62.45;26.48;;;2.80;99.90;;;;;;4987444;28;20090;-79
2022/12/19 05:52:42;;;;;;;57.17;26.63;;;2.90;99.90;;;;;;4987248;28;20046;-79
2022/12/19 05:55:08;;;;;;;57.03;27.13;;;2.90;99.90;;;;;;4987686;28;20046;-78
2022/12/19 05:57:34;;;;;;;53.88;26.20;;;3.00;99.90;;;;;;4988472;28;20038;-78
2022/12/19 06:00:00;;;;;;;50.63;24.52;;;3.00;99.90;;;;;;4987228;28;20050;-78
2022/12/19 06:02:25;;;;;;;54.90;24.98;;;3.20;99.90;;;;;;4989048;28;20361;-78
2022/12/19 06:04:51;;;;;;;54.30;25.52;;;3.00;99.90;;;;;;4989304;28;20041;-78
2022/12/19 06:07:17;;;;;;;47.47;24.23;;;3.20;99.90;;;;;;4988678;28;20046;-78
2022/12/19 06:09:42;;;;;;;50.05;22.73;;;3.20;99.90;;;;;;4990169;28;20487;-78
2022/12/19 06:12:08;;;;;;;50.53;22.85;;;3.20;99.90;;;;;;4988866;28;20073;-78
2022/12/19 06:14:34;;;;;;;52.80;23.80;;;3.10;99.90;;;;;;4984993;28;20046;-78
2022/12/19 06:16:59;;;;;;;51.70;23.33;;;3.20;99.90;;;;;;4976936;28;20049;-78
2022/12/19 06:19:25;;;;;;;46.72;22.75;;;3.30;99.90;;;;;;4989559;28;20050;-78
2022/12/19 06:21:51;;;;;;;43.83;22.88;;;3.30;99.90;;;;;;4988125;28;20038;-78
2022/12/19 06:24:16;;;;;;;48.30;22.17;;;3.40;99.90;;;;;;4986771;28;20493;-78
2022/12/19 06:26:43;;;;;;;48.58;22.35;;;3.40;99.90;;;;;;4985455;28;20050;-78
2022/12/19 06:29:08;;;;;;;41.90;20.77;;;3.40;99.90;;;;;;4986457;28;20532;-79
2022/12/19 06:31:34;;;;;;;42.15;21.58;;;3.40;99.90;;;;;;4989758;28;20130;-78
2022/12/19 06:34:00;;;;;;;50.33;24.25;;;3.50;99.90;;;;;;4988498;28;20045;-78
2022/12/19 06:36:31;;;;;;;48.88;22.67;;;3.70;99.90;;;;;;4989868;28;20177;-79
2022/12/19 06:38:57;;;;;;;48.95;22.80;;;3.50;99.90;;;;;;4988075;28;20034;-79
2022/12/19 06:44:14;;;;;;;45.15;21.20;;;;;;;;;;4974469;28;20094;-79
2022/12/19 06:46:41;;;;;;;39.15;19.80;;;3.40;99.90;;;;;;4988905;28;20093;-78
2022/12/19 06:49:07;;;;;;;43.95;20.33;;;3.50;99.90;;;;;;4989428;28;20104;-80
2022/12/19 06:51:33;;;;;;;41.60;20.35;;;3.50;99.90;;;;;;4987470;28;20054;-80
2022/12/19 06:54:01;;;;;;;41.35;20.05;;;3.60;99.90;;;;;;4988277;28;20463;-80
2022/12/19 06:56:27;;;;;;;42.88;20.50;;;3.60;99.90;;;;;;4988861;28;20096;-80
2022/12/19 06:58:52;;;;;;;40.22;20.25;;;3.60;99.90;;;;;;4988318;28;20528;-80
2022/12/19 07:01:52;;;;;;;39.85;18.60;;;3.70;99.90;;;;;;4986930;28;20125;-80
2022/12/19 07:04:27;;;;;;;36.20;18.95;;;3.70;99.90;;;;;;4967760;28;20051;-80
2022/12/19 07:06:53;;;;;;;39.05;19.48;;;3.70;99.90;;;;;;4986966;28;20042;-80
2022/12/19 07:09:19;;;;;;;37.42;19.20;;;3.80;99.90;;;;;;4986075;28;20049;-80
2022/12/19 07:11:46;;;;;;;37.08;18.27;;;3.70;99.90;;;;;;4985736;28;20730;-80
2022/12/19 07:14:11;;;;;;;39.55;18.95;;;3.80;99.90;;;;;;4987700;28;20141;-79
2022/12/19 07:16:37;;;;;;;39.30;19.60;;;3.80;99.90;;;;;;4987637;28;20133;-80
2022/12/19 07:19:07;;;;;;;37.85;18.98;;;3.80;99.90;;;;;;4985260;28;20519;-80
2022/12/19 07:21:33;;;;;;;38.53;19.27;;;3.80;99.90;;;;;;4985956;28;20035;-79
2022/12/19 07:23:59;;;;;;;38.90;18.88;;;3.80;99.90;;;;;;4988940;28;20046;-80
2022/12/19 07:26:26;;;;;;;39.47;19.83;;;3.80;99.90;;;;;;4986532;28;20061;-80
2022/12/19 07:28:52;;;;;;;39.90;20.52;;;3.90;99.90;;;;;;4971521;28;20195;-79
2022/12/19 07:31:17;;;;;;;38.92;19.70;;;3.90;99.90;;;;;;4989106;28;20049;-80
2022/12/19 07:33:43;;;;;;;45.40;21.20;;;3.90;99.90;;;;;;4988358;28;20042;-79
2022/12/19 07:36:09;;;;;;;37.95;19.88;;;3.90;99.90;;;;;;4987076;28;20054;-80
2022/12/19 07:38:35;;;;;;;37.53;18.38;;;4.00;99.90;;;;;;4988731;28;20050;-80
2022/12/19 07:41:01;;;;;;;38.72;18.33;;;4.00;99.90;;;;;;4986621;28;20046;-80
2022/12/19 07:43:27;;;;;;;35.50;18.42;;;4.10;99.90;;;;;;4971255;28;20818;-80
2022/12/19 07:45:54;;;;;;;37.15;18.67;;;4.00;99.90;;;;;;4989662;28;20042;-80
2022/12/19 07:48:20;;;;;;;33.25;16.92;;;4.10;99.90;;;;;;4991483;28;20042;-79
2022/12/19 07:50:47;;;;;;;35.65;17.83;;;4.10;99.90;;;;;;4991687;28;20092;-79
2022/12/19 07:53:14;;;;;;;30.70;17.23;;;4.10;99.90;;;;;;4988879;28;20046;-84
2022/12/19 07:55:39;;;;;;;36.83;18.33;;;4.20;99.90;;;;;;4990527;28;20531;-80
2022/12/19 07:58:05;;;;;;;29.00;15.82;;;4.20;99.90;;;;;;4990315;28;20043;-83
2022/12/19 08:00:31;;;;;;;29.27;17.13;;;4.30;99.90;;;;;;4986163;28;20117;-81
2022/12/19 08:03:00;;;;;;;30.00;16.02;;;4.30;99.90;;;;;;4969976;28;20047;-81
2022/12/19 08:05:25;;;;;;;28.98;15.57;;;4.10;99.90;;;;;;4970922;28;20058;-80
2022/12/19 08:07:51;;;;;;;32.35;17.17;;;4.40;99.90;;;;;;4972065;28;20055;-80
2022/12/19 08:10:18;;;;;;;33.63;16.42;;;4.30;99.90;;;;;;4972286;28;20050;-79
2022/12/19 08:12:44;;;;;;;30.65;15.98;;;4.80;99.90;;;;;;4990865;28;20097;-81
2022/12/19 08:15:09;;;;;;;29.23;16.17;;;4.50;99.90;;;;;;4989271;28;20050;-81
2022/12/19 08:17:35;;;;;;;29.85;15.75;;;4.60;99.90;;;;;;4988196;28;20042;-82
2022/12/19 08:20:01;;;;;;;31.73;16.33;;;4.60;99.90;;;;;;4990058;28;20615;-81
2022/12/19 08:22:28;;;;;;;31.92;15.82;;;4.60;99.90;;;;;;4990420;28;20053;-81
2022/12/19 08:24:54;;;;;;;30.23;15.60;;;4.70;99.90;;;;;;4989660;28;20401;-81
2022/12/19 08:27:19;;;;;;;30.40;16.05;;;4.70;99.90;;;;;;4978552;28;20057;-81
2022/12/19 08:29:46;;;;;;;25.88;15.27;;;4.70;99.90;;;;;;4985124;28;20643;-81
2022/12/19 08:32:13;;;;;;;27.77;15.18;;;4.70;99.90;;;;;;4989378;28;20046;-82
2022/12/19 08:34:39;;;;;;;28.88;17.48;;;4.80;99.90;;;;;;4989771;28;20412;-82
2022/12/19 08:37:05;;;;;;;31.75;16.48;;;4.80;99.90;;;;;;4988260;28;20057;-82
2022/12/19 08:39:30;;;;;;;35.42;19.25;;;4.90;99.90;;;;;;4990895;28;20046;-81
2022/12/19 08:41:56;;;;;;;27.88;15.90;;;4.90;99.90;;;;;;4989548;28;20038;-81
2022/12/19 08:44:21;;;;;;;29.27;15.27;;;4.90;99.90;;;;;;4989524;28;20120;-81
2022/12/19 08:46:50;;;;;;;28.75;15.35;;;5.20;99.90;;;;;;4988892;28;20400;-81
2022/12/19 08:49:17;;;;;;;28.90;15.95;;;5.00;99.90;;;;;;4991275;28;20125;-81
2022/12/19 08:51:43;;;;;;;28.90;16.40;;;5.10;99.90;;;;;;4989333;28;20066;-80
2022/12/19 08:54:08;;;;;;;27.98;15.88;;;5.00;99.90;;;;;;4970752;28;20578;-81
2022/12/19 08:56:34;;;;;;;29.35;16.88;;;4.90;99.90;;;;;;4988798;28;20046;-81
2022/12/19 08:58:59;;;;;;;31.13;15.32;;;5.10;99.90;;;;;;4989541;28;20196;-81
2022/12/19 09:01:25;;;;;;;32.20;15.98;;;5.10;99.90;;;;;;4989380;28;20130;-81
2022/12/19 09:03:51;;;;;;;32.28;18.02;;;5.20;99.90;;;;;;4972417;28;20046;-80
2022/12/19 09:06:17;;;;;;;29.33;16.85;;;5.20;99.90;;;;;;4989099;28;20089;-80
2022/12/19 09:08:43;;;;;;;29.80;17.70;;;5.20;99.90;;;;;;4989106;28;20046;-81
2022/12/19 09:11:18;;;;;;;31.08;17.13;;;5.20;99.90;;;;;;4988579;28;20079;-80
2022/12/19 09:13:45;;;;;;;33.00;17.30;;;5.00;99.90;;;;;;4973160;28;20166;-81
2022/12/19 09:16:20;;;;;;;34.13;19.10;;;5.20;99.90;;;;;;4987951;28;20118;-81
2022/12/19 09:18:48;;;;;;;33.22;18.83;;;5.50;99.90;;;;;;4989317;28;20054;-81
2022/12/19 09:21:14;;;;;;;35.85;19.05;;;5.30;99.90;;;;;;4990112;28;20054;-81
2022/12/19 09:23:40;;;;;;;34.17;19.60;;;5.50;99.90;;;;;;4986877;28;20047;-83
2022/12/19 09:26:11;;;;;;;33.75;19.05;;;5.50;99.90;;;;;;4986418;28;20046;-81
2022/12/19 09:28:39;;;;;;;32.33;19.60;;;5.50;99.90;;;;;;4986366;28;20420;-81
2022/12/19 09:31:10;;;;;;;38.33;19.92;;;5.50;99.90;;;;;;4965314;28;20117;-81
2022/12/19 09:33:37;;;;;;;38.85;20.75;;;5.30;99.90;;;;;;4988492;28;20056;-81
2022/12/19 09:36:04;;;;;;;36.55;19.80;;;5.60;99.90;;;;;;4963719;28;20062;-81
2022/12/19 09:38:32;;;;;;;34.58;20.25;;;5.60;99.90;;;;;;4985449;28;20054;-81
2022/12/19 09:41:04;;;;;;;36.75;19.60;;;5.70;99.90;;;;;;4973074;28;20043;-81
2022/12/19 09:43:42;;;;;;;36.78;20.23;;;5.90;99.90;;;;;;4952866;28;20039;-82
2022/12/19 09:46:27;;;;;;;39.33;19.27;;;5.80;99.90;;;;;;4969129;28;20536;-81
2022/12/19 09:48:54;;;;;;;39.45;19.77;;;5.80;99.90;;;;;;4983201;28;20128;-81
2022/12/19 09:51:36;;;;;;;37.55;20.23;;;5.60;99.90;;;;;;4971104;28;20042;-81
2022/12/19 09:54:14;;;;;;;37.25;19.23;;;5.80;99.90;;;;;;4987855;28;20053;-81
2022/12/19 09:56:42;;;;;;;36.88;18.85;;;5.80;99.90;;;;;;4988093;28;20833;-81
2022/12/19 09:59:18;;;;;;;38.13;18.55;;;5.80;99.90;;;;;;4988193;28;20050;-81
2022/12/19 10:01:58;;;;;;;34.10;18.38;;;5.90;99.90;;;;;;4987948;28;20061;-83
2022/12/19 10:04:26;;;;;;;34.97;17.33;;;5.90;99.90;;;;;;4989203;28;20043;-86
2022/12/19 10:06:52;;;;;;;33.25;17.98;;;5.90;99.90;;;;;;4987293;28;20050;-84
2022/12/19 10:09:20;;;;;;;34.83;17.90;;;6.00;99.90;;;;;;4971026;28;20042;-82
2022/12/19 10:12:15;;;;;;;30.70;16.70;;;6.00;99.90;;;;;;4986312;28;20057;-82
2022/12/19 10:15:07;;;;;;;28.95;16.38;;;6.10;99.90;;;;;;4987189;28;20093;-83
2022/12/19 10:18:00;;;;;;;31.77;16.45;;;6.10;99.90;;;;;;4971302;28;20048;-84
2022/12/19 10:20:28;;;;;;;32.13;17.05;;;6.20;99.90;;;;;;4960839;28;20167;-83
2022/12/19 10:23:21;;;;;;;31.10;17.60;;;5.90;99.90;;;;;;4986531;28;20054;-83
2022/12/19 10:26:12;;;;;;;27.90;16.65;;;6.30;99.90;;;;;;4971477;28;20054;-82
2022/12/19 10:28:58;;;;;;;29.00;17.00;;;6.20;99.90;;;;;;4970784;28;20607;-82
2022/12/19 10:31:43;;;;;;;29.80;17.13;;;6.30;99.90;;;;;;4986380;28;20115;-83
2022/12/19 10:34:34;;;;;;;29.05;16.85;;;6.30;99.90;;;;;;4969920;28;20061;-83
2022/12/19 10:37:25;;;;;;;29.67;17.30;;;6.50;99.90;;;;;;4986897;28;20133;-81
2022/12/19 10:39:58;;;;;;;32.25;16.52;;;6.20;99.90;;;;;;4987679;28;20719;-84
2022/12/19 10:42:41;;;;;;;24.95;14.93;;;6.20;99.90;;;;;;4968383;28;20042;-84
2022/12/19 10:45:17;;;;;;;27.65;15.75;;;6.20;99.90;;;;;;4962395;28;20121;-84
2022/12/19 10:47:46;;;;;;;25.67;15.68;;;6.30;99.90;;;;;;4986932;28;20046;-84
2022/12/19 10:50:16;;;;;;;25.55;15.00;;;6.40;99.90;;;;;;4987222;28;20086;-84
2022/12/19 10:53:11;;;;;;;27.10;16.20;;;7.20;99.90;;;;;;4986722;28;20046;-83
2022/12/19 10:55:52;;;;;;;25.90;14.90;;;6.60;99.90;;;;;;4970339;28;20648;-83
2022/12/19 10:58:27;;;;;;;24.23;14.80;;;6.60;99.90;;;;;;4985007;28;20089;-85
2022/12/19 11:01:01;;;;;;;24.13;14.70;;;6.60;99.90;;;;;;4984953;28;20053;-86
2022/12/19 11:03:28;;;;;;;24.05;13.68;;;6.50;99.90;;;;;;4986875;28;20484;-86
2022/12/19 11:05:56;;;;;;;24.10;14.55;;;6.50;99.90;;;;;;4984917;28;20053;-86
2022/12/19 11:08:27;;;;;;;24.48;13.88;;;6.50;99.90;;;;;;4968588;28;20035;-86
2022/12/19 11:11:13;;;;;;;21.75;13.77;;;6.50;99.90;;;;;;4969087;28;20068;-86
2022/12/19 11:13:44;;;;;;;25.98;14.60;;;6.50;99.90;;;;;;4997618;28;20085;-85
2022/12/19 11:16:11;;;;;;;26.25;14.30;;;6.50;99.90;;;;;;4984715;28;20054;-85
2022/12/19 11:18:45;;;;;;;22.23;13.75;;;6.60;99.90;;;;;;4969696;28;20101;-87
2022/12/19 11:21:28;;;;;;;21.13;13.50;;;6.60;99.90;;;;;;4977968;28;20559;-87
2022/12/19 11:24:04;;;;;;;21.92;12.88;;;6.60;99.90;;;;;;4984571;28;20058;-85
2022/12/19 11:26:38;;;;;;;20.17;13.40;;;6.60;99.90;;;;;;4988964;28;20058;-85
2022/12/19 11:29:49;;;;;;;22.02;13.48;;;6.70;99.90;;;;;;5097719;27;20887;-84
2022/12/19 11:32:38;;;;;;;24.35;13.18;;;6.80;99.90;;;;;;5083241;28;20052;-84
2022/12/19 11:35:24;;;;;;;21.90;13.38;;;6.70;99.90;;;;;;5081555;28;20037;-86
2022/12/19 11:38:03;;;;;;;23.52;12.77;;;6.80;99.90;;;;;;5047757;28;20082;-86
2022/12/19 11:40:50;;;;;;;22.75;14.30;;;6.80;99.90;;;;;;5070430;28;20907;-85
2022/12/19 11:43:43;;;;;;;36.70;19.65;;;6.80;99.90;;;;;;5078008;28;20051;-83
2022/12/19 11:46:11;;;;;;;26.80;15.63;;;6.80;99.90;;;;;;5050199;28;20060;-86
2022/12/19 11:48:45;;;;;;;32.33;19.83;;;6.10;99.90;;;;;;5047013;28;20059;-84
2022/12/19 11:51:26;;;;;;;22.15;13.93;;;6.80;99.90;;;;;;5046487;28;20073;-84
2022/12/19 11:54:13;;;;;;;21.88;13.52;;;6.90;99.90;;;;;;5064716;28;20177;-86
2022/12/19 11:56:39;;;;;;;22.42;13.23;;;6.90;99.90;;;;;;5080222;28;20044;-85
2022/12/19 11:59:17;;;;;;;20.88;13.25;;;6.90;99.90;;;;;;5074939;28;20036;-86
2022/12/19 12:01:46;;;;;;;22.83;13.75;;;6.90;99.90;;;;;;5076723;28;20037;-86
2022/12/19 12:04:37;;;;;;;21.13;13.15;;;6.90;99.90;;;;;;5081361;28;20502;-86
2022/12/19 12:07:05;;;;;;;21.55;13.15;;;6.40;99.90;;;;;;5078650;28;20490;-85
2022/12/19 12:09:43;;;;;;;20.13;13.48;;;7.00;99.90;;;;;;5079210;28;20044;-86
2022/12/19 12:12:32;;;;;;;21.95;12.98;;;7.00;99.90;;;;;;5077955;28;20036;-87
2022/12/19 12:15:32;;;;;;;20.33;13.15;;;7.00;99.90;;;;;;5081849;28;20048;-85
2022/12/19 12:18:16;;;;;;;20.60;13.25;;;7.00;99.90;;;;;;5077797;28;20071;-85
2022/12/19 12:20:48;;;;;;;20.08;13.02;;;7.00;99.90;;;;;;5074527;28;20056;-86
2022/12/19 12:23:40;;;;;;;21.50;13.38;;;7.00;99.90;;;;;;5083551;28;20059;-87
2022/12/19 12:26:27;;;;;;;20.95;14.18;;;7.10;99.90;;;;;;5069686;28;20041;-86
2022/12/19 12:29:07;;;;;;;20.00;13.02;;;7.10;99.90;;;;;;5062972;28;20056;-87
2022/12/19 12:31:43;;;;;;;16.98;11.93;;;7.10;99.90;;;;;;5069320;28;20048;-87
2022/12/19 12:34:48;;;;;;;19.08;12.55;;;7.00;99.90;;;;;;5068403;28;20047;-87
2022/12/19 12:37:45;;;;;;;16.20;12.10;;;7.10;99.90;;;;;;5083904;28;20056;-87
2022/12/19 12:40:38;;;;;;;22.05;12.85;;;7.20;99.90;;;;;;5041911;28;20084;-87
2022/12/19 12:43:28;;;;;;;;;;;7.20;99.90;;;;;;5051577;28;20553;-86
2022/12/19 12:45:53;;;;;;;21.30;13.63;;;7.20;99.90;;;;;;5052709;28;20020;-86
2022/12/19 12:48:49;;;;;;;17.92;12.57;;;7.20;99.90;;;;;;5055908;28;20045;-87
2022/12/19 12:51:17;;;;;;;20.67;12.38;;;7.20;99.90;;;;;;5047301;28;20049;-87
2022/12/19 12:53:45;;;;;;;22.70;14.82;;;7.20;99.90;;;;;;5067721;28;20037;-87
2022/12/19 12:56:16;;;;;;;23.15;14.48;;;7.30;99.90;;;;;;5052067;28;20197;-86
2022/12/19 12:59:01;;;;;;;19.92;14.52;;;7.30;99.90;;;;;;5068544;28;20134;-87
2022/12/19 13:01:27;;;;;;;20.00;13.23;;;7.30;99.90;;;;;;5068619;28;20040;-87
2022/12/19 13:04:02;;;;;;;19.67;14.00;;;7.30;99.90;;;;;;5057267;28;20049;-87
2022/12/19 13:06:40;;;;;;;18.50;12.95;;;7.30;99.90;;;;;;5048293;28;20414;-85
2022/12/19 13:09:08;;;;;;;21.55;12.55;;;7.30;99.90;;;;;;5058215;28;20053;-87